createdAt,value
2018-03-26T00:00:43.779Z,23.27
2018-03-26T00:03:11.136Z,23.60
2018-03-26T00:05:37.718Z,24.87
2018-03-26T00:08:04.812Z,26.97
2018-03-26T00:10:31.042Z,23.60
2018-03-26T00:12:57.319Z,24.70
2018-03-26T00:15:23.526Z,21.87
2018-03-26T00:17:49.725Z,24.70
2018-03-26T00:20:16.567Z,24.13
2018-03-26T00:22:43.149Z,23.53
2018-03-26T00:25:09.390Z,26.27
2018-03-26T00:27:35.617Z,24.10
2018-03-26T00:30:01.897Z,24.80
2018-03-26T00:32:28.106Z,25.43
2018-03-26T00:34:55.521Z,26.30
2018-03-26T00:37:22.125Z,25.80
2018-03-26T00:39:48.360Z,23.77
2018-03-26T00:42:14.575Z,25.10
2018-03-26T00:44:41.561Z,22.93
2018-03-26T00:47:08.125Z,22.73
2018-03-26T00:49:36.109Z,24.00
2018-03-26T00:52:03.683Z,24.77
2018-03-26T00:54:30.698Z,25.80
2018-03-26T00:56:57.198Z,23.93
2018-03-26T00:59:23.768Z,24.10
2018-03-26T01:01:51.198Z,24.07
2018-03-26T01:04:17.529Z,23.40
2018-03-26T01:06:43.730Z,23.77
2018-03-26T01:09:10.408Z,23.97
2018-03-26T01:11:37.066Z,23.17
2018-03-26T01:14:04.265Z,25.10
2018-03-26T01:16:30.870Z,23.47
2018-03-26T01:18:57.794Z,26.10
2018-03-26T01:21:24.046Z,25.07
2018-03-26T01:23:50.707Z,24.10
2018-03-26T01:26:17.266Z,26.77
2018-03-26T01:28:43.854Z,27.07
2018-03-26T01:31:10.463Z,25.20
2018-03-26T01:33:37.679Z,24.47
2018-03-26T01:36:05.406Z,25.57
2018-03-26T01:38:32.437Z,24.23
2018-03-26T01:40:58.979Z,25.20
2018-03-26T01:43:26.499Z,25.47
2018-03-26T01:45:52.708Z,23.57
2018-03-26T01:48:18.959Z,26.10
2018-03-26T01:50:45.201Z,24.70
2018-03-26T01:53:11.460Z,23.53
2018-03-26T01:55:37.734Z,25.43
2018-03-26T01:58:04.371Z,25.20
2018-03-26T02:00:30.679Z,25.07
2018-03-26T02:02:57.695Z,24.10
2018-03-26T02:05:23.890Z,23.70
2018-03-26T02:07:51.210Z,25.23
2018-03-26T02:10:18.186Z,24.20
2018-03-26T02:12:45.130Z,25.23
2018-03-26T02:15:11.342Z,25.20
2018-03-26T02:17:37.926Z,24.40
2018-03-26T02:20:04.180Z,24.80
2018-03-26T02:22:31.141Z,25.30
2018-03-26T02:24:58.115Z,26.70
2018-03-26T02:27:24.330Z,25.67
2018-03-26T02:29:50.605Z,27.47
2018-03-26T02:32:17.318Z,26.17
2018-03-26T02:34:43.558Z,24.67
2018-03-26T02:37:10.138Z,26.73
2018-03-26T02:39:37.107Z,26.67
2018-03-26T02:42:03.404Z,24.90
2018-03-26T02:44:29.641Z,25.63
2018-03-26T02:46:56.643Z,27.33
2018-03-26T02:49:23.250Z,26.37
2018-03-26T02:51:49.473Z,26.13
2018-03-26T02:54:16.974Z,26.70
2018-03-26T02:56:43.150Z,27.00
2018-03-26T02:59:10.082Z,25.77
2018-03-26T03:01:36.272Z,27.27
2018-03-26T03:04:04.491Z,26.80
2018-03-26T03:06:30.767Z,25.97
2018-03-26T03:08:56.957Z,28.80
2018-03-26T03:11:24.207Z,25.70
2018-03-26T03:13:51.295Z,27.63
2018-03-26T03:16:18.314Z,27.03
2018-03-26T03:18:45.265Z,27.70
2018-03-26T03:21:12.223Z,29.10
2018-03-26T03:23:38.438Z,25.40
2018-03-26T03:26:05.071Z,28.00
2018-03-26T03:28:32.057Z,26.50
2018-03-26T03:30:58.652Z,28.63
2018-03-26T03:33:25.254Z,26.43
2018-03-26T03:35:51.589Z,27.60
2018-03-26T03:38:18.629Z,27.77
2018-03-26T03:40:44.812Z,28.20
2018-03-26T03:43:11.033Z,26.10
2018-03-26T03:45:38.031Z,27.10
2018-03-26T03:48:04.256Z,26.03
2018-03-26T03:50:30.503Z,27.93
2018-03-26T03:52:56.705Z,26.30
2018-03-26T03:55:22.900Z,26.47
2018-03-26T03:57:49.887Z,25.73
2018-03-26T04:00:17.099Z,27.90
2018-03-26T04:02:44.504Z,27.40
2018-03-26T04:05:11.307Z,27.27
2018-03-26T04:07:37.496Z,26.63
2018-03-26T04:10:03.739Z,25.93
2018-03-26T04:12:30.716Z,27.30
2018-03-26T04:14:56.879Z,29.60
2018-03-26T04:17:23.450Z,26.97
2018-03-26T04:19:50.005Z,27.27
2018-03-26T04:22:17.705Z,28.77
2018-03-26T04:24:43.891Z,29.10
2018-03-26T04:27:10.816Z,27.73
2018-03-26T04:29:37.022Z,25.73
2018-03-26T04:32:03.279Z,26.37
2018-03-26T04:34:29.490Z,29.50
2018-03-26T04:36:55.739Z,27.23
2018-03-26T04:39:21.987Z,29.90
2018-03-26T04:41:49.734Z,29.57
2018-03-26T04:44:16.950Z,28.67
2018-03-26T04:46:43.186Z,28.10
2018-03-26T04:49:11.838Z,28.03
2018-03-26T04:51:38.830Z,30.53
2018-03-26T04:54:05.093Z,27.60
2018-03-26T04:56:32.726Z,30.00
2018-03-26T04:58:58.929Z,28.27
2018-03-26T05:01:25.504Z,28.80
2018-03-26T05:03:52.480Z,27.30
2018-03-26T05:06:19.540Z,27.40
2018-03-26T05:08:45.750Z,26.30
2018-03-26T05:11:13.283Z,30.03
2018-03-26T05:13:39.530Z,28.40
2018-03-26T05:16:07.202Z,26.43
2018-03-26T05:18:34.139Z,27.50
2018-03-26T05:21:00.745Z,29.40
2018-03-26T05:23:27.352Z,28.80
2018-03-26T05:25:56.087Z,28.13
2018-03-26T05:28:22.261Z,28.77
2018-03-26T05:30:49.359Z,26.40
2018-03-26T05:33:15.568Z,27.30
2018-03-26T05:35:42.594Z,28.70
2018-03-26T05:38:08.874Z,29.13
2018-03-26T05:40:36.223Z,28.70
2018-03-26T05:43:02.448Z,29.00
2018-03-26T05:45:29.652Z,28.67
2018-03-26T05:47:56.709Z,28.50
2018-03-26T05:50:22.923Z,29.17
2018-03-26T05:52:49.279Z,29.03
2018-03-26T05:55:15.490Z,26.43
2018-03-26T05:57:41.741Z,26.80
2018-03-26T06:00:08.715Z,26.27
2018-03-26T06:02:35.926Z,26.00
2018-03-26T06:05:02.926Z,27.33
2018-03-26T06:07:30.654Z,29.90
2018-03-26T06:09:57.132Z,27.53
2018-03-26T06:12:23.730Z,25.23
2018-03-26T06:14:49.966Z,24.77
2018-03-26T06:17:16.298Z,28.47
2018-03-26T06:19:42.560Z,26.03
2018-03-26T06:22:09.875Z,25.47
2018-03-26T06:24:36.125Z,25.57
2018-03-26T06:27:03.697Z,24.60
2018-03-26T06:29:30.397Z,26.20
2018-03-26T06:31:57.398Z,25.73
2018-03-26T06:34:24.872Z,24.53
2018-03-26T06:39:50.519Z,26.67
2018-03-26T06:42:16.840Z,25.30
2018-03-26T06:44:43.791Z,23.30
2018-03-26T06:47:10.056Z,27.00
2018-03-26T06:49:36.394Z,25.27
2018-03-26T06:52:02.818Z,27.50
2018-03-26T06:54:30.841Z,26.60
2018-03-26T06:57:00.544Z,26.80
2018-03-26T06:59:27.660Z,26.77
2018-03-26T07:01:53.928Z,24.50
2018-03-26T07:04:20.115Z,26.70
2018-03-26T07:06:46.807Z,26.00
2018-03-26T07:09:14.590Z,26.30
2018-03-26T07:11:41.907Z,28.20
2018-03-26T07:14:09.629Z,27.57
2018-03-26T07:16:36.996Z,25.77
2018-03-26T07:19:03.330Z,29.73
2018-03-26T07:21:29.576Z,30.20
2018-03-26T07:23:57.174Z,29.80
2018-03-26T07:26:24.502Z,28.27
2018-03-26T07:28:52.422Z,28.27
2018-03-26T07:31:19.645Z,31.00
2018-03-26T07:33:47.209Z,28.73
2018-03-26T07:36:13.911Z,32.10
2018-03-26T07:38:40.518Z,30.20
2018-03-26T07:41:07.332Z,30.23
2018-03-26T07:43:33.565Z,29.90
2018-03-26T07:45:59.777Z,29.47
2018-03-26T07:48:27.617Z,28.47
2018-03-26T07:50:56.124Z,31.07
2018-03-26T07:53:23.724Z,30.20
2018-03-26T07:55:50.855Z,31.90
2018-03-26T07:58:17.872Z,30.13
2018-03-26T08:00:44.791Z,31.77
2018-03-26T08:03:11.939Z,29.63
2018-03-26T08:05:38.688Z,30.37
2018-03-26T08:08:05.695Z,30.43
2018-03-26T08:10:32.564Z,29.53
2018-03-26T08:13:00.754Z,28.73
2018-03-26T08:15:28.124Z,28.63
2018-03-26T08:17:55.706Z,29.03
2018-03-26T08:20:22.038Z,30.80
2018-03-26T08:22:49.954Z,28.60
2018-03-26T08:25:16.969Z,28.77
2018-03-26T08:27:43.198Z,31.43
2018-03-26T08:30:11.202Z,30.43
2018-03-26T08:32:38.764Z,32.30
2018-03-26T08:35:06.818Z,31.10
2018-03-26T08:37:33.009Z,29.20
2018-03-26T08:39:59.275Z,28.67
2018-03-26T08:42:26.297Z,29.80
2018-03-26T08:44:53.230Z,28.70
2018-03-26T08:47:20.566Z,29.00
2018-03-26T08:49:47.156Z,29.00
2018-03-26T08:52:13.805Z,30.47
2018-03-26T08:54:40.064Z,30.97
2018-03-26T08:57:06.288Z,29.00
2018-03-26T08:59:32.985Z,29.83
2018-03-26T09:01:59.579Z,29.37
2018-03-26T09:04:27.480Z,35.50
2018-03-26T09:06:53.726Z,30.87
2018-03-26T09:09:20.763Z,32.47
2018-03-26T09:11:47.351Z,30.63
2018-03-26T09:14:13.655Z,32.80
2018-03-26T09:16:39.901Z,33.10
2018-03-26T09:19:06.883Z,32.73
2018-03-26T09:21:33.903Z,34.47
2018-03-26T09:24:00.548Z,33.50
2018-03-26T09:26:26.779Z,34.57
2018-03-26T09:28:53.069Z,34.00
2018-03-26T09:31:19.696Z,33.47
2018-03-26T09:33:46.960Z,35.60
2018-03-26T09:36:13.839Z,34.90
2018-03-26T09:38:40.875Z,32.40
2018-03-26T09:41:07.460Z,34.47
2018-03-26T09:43:34.095Z,34.23
2018-03-26T09:46:02.382Z,34.80
2018-03-26T09:48:29.371Z,33.53
2018-03-26T09:50:58.092Z,39.70
2018-03-26T09:53:25.890Z,32.97
2018-03-26T09:55:52.778Z,34.83
2018-03-26T09:58:19.769Z,35.77
2018-03-26T10:00:47.768Z,35.63
2018-03-26T10:03:14.775Z,35.07
2018-03-26T10:05:42.439Z,36.03
2018-03-26T10:08:09.482Z,35.03
2018-03-26T10:10:36.889Z,37.10
2018-03-26T10:13:05.037Z,34.30
2018-03-26T10:15:32.221Z,36.40
2018-03-26T10:17:58.540Z,37.30
2018-03-26T10:20:24.780Z,34.80
2018-03-26T10:22:51.488Z,33.97
2018-03-26T10:25:17.775Z,34.97
2018-03-26T10:27:44.968Z,34.47
2018-03-26T10:30:11.560Z,34.10
2018-03-26T10:32:37.854Z,35.77
2018-03-26T10:35:04.080Z,37.60
2018-03-26T10:37:30.340Z,36.67
2018-03-26T10:39:57.018Z,35.80
2018-03-26T10:42:24.032Z,35.50
2018-03-26T10:44:50.352Z,37.73
2018-03-26T10:47:16.623Z,36.33
2018-03-26T10:49:44.651Z,38.53
2018-03-26T10:52:11.497Z,36.83
2018-03-26T10:54:37.737Z,36.17
2018-03-26T10:57:04.936Z,39.00
2018-03-26T10:59:33.884Z,38.07
2018-03-26T11:02:00.244Z,37.30
2018-03-26T11:04:26.904Z,39.90
2018-03-26T11:06:53.169Z,39.77
2018-03-26T11:09:19.470Z,38.23
2018-03-26T11:11:47.492Z,39.57
2018-03-26T11:14:14.110Z,39.50
2018-03-26T11:16:40.662Z,38.57
2018-03-26T11:19:07.039Z,40.33
2018-03-26T11:21:34.106Z,37.20
2018-03-26T11:24:00.451Z,39.90
2018-03-26T11:26:26.828Z,41.10
2018-03-26T11:28:53.944Z,40.30
2018-03-26T11:31:20.216Z,40.57
2018-03-26T11:33:47.208Z,40.90
2018-03-26T11:36:14.465Z,42.00
2018-03-26T11:38:41.116Z,43.13
2018-03-26T11:41:08.334Z,41.83
2018-03-26T11:43:34.559Z,41.53
2018-03-26T11:46:00.822Z,42.60
2018-03-26T11:48:27.066Z,43.97
2018-03-26T11:50:54.950Z,42.23
2018-03-26T11:53:21.222Z,44.57
2018-03-26T11:55:48.303Z,38.57
2018-03-26T11:58:14.555Z,42.47
2018-03-26T12:00:41.739Z,40.90
2018-03-26T12:03:08.749Z,42.83
2018-03-26T12:05:35.174Z,41.17
2018-03-26T12:08:04.935Z,41.57
2018-03-26T12:10:32.405Z,38.77
2018-03-26T12:12:58.697Z,37.57
2018-03-26T12:15:25.056Z,37.20
2018-03-26T12:17:51.661Z,37.33
2018-03-26T12:20:30.509Z,38.63
2018-03-26T12:22:57.520Z,38.40
2018-03-26T12:25:24.738Z,40.50
2018-03-26T12:28:03.350Z,40.30
2018-03-26T12:30:30.265Z,41.77
2018-03-26T12:32:56.480Z,42.07
2018-03-26T12:35:35.441Z,40.83
2018-03-26T12:38:02.116Z,39.20
2018-03-26T12:40:41.969Z,40.73
2018-03-26T12:43:08.245Z,40.17
2018-03-26T12:45:47.939Z,38.87
2018-03-26T12:48:15.725Z,39.57
2018-03-26T12:50:54.070Z,39.50
2018-03-26T12:53:22.901Z,36.10
2018-03-26T12:55:50.464Z,41.13
2018-03-26T12:58:29.429Z,41.03
2018-03-26T13:01:08.933Z,37.90
2018-03-26T13:03:35.219Z,38.50
2018-03-26T13:06:02.202Z,40.50
2018-03-26T13:08:28.942Z,38.93
2018-03-26T13:10:56.470Z,39.17
2018-03-26T13:13:23.902Z,37.83
2018-03-26T13:15:50.216Z,40.10
2018-03-26T13:18:16.450Z,38.60
2018-03-26T13:20:42.780Z,39.20
2018-03-26T13:23:09.019Z,38.77
2018-03-26T13:25:36.138Z,41.10
2018-03-26T13:28:02.734Z,40.20
2018-03-26T13:30:29.418Z,39.03
2018-03-26T13:32:55.681Z,36.50
2018-03-26T13:35:21.931Z,39.60
2018-03-26T13:37:48.217Z,37.77
2018-03-26T13:40:14.564Z,34.73
2018-03-26T13:42:41.199Z,37.20
2018-03-26T13:45:08.561Z,33.00
2018-03-26T13:47:35.688Z,34.00
2018-03-26T13:50:02.595Z,36.10
2018-03-26T13:52:30.923Z,33.07
2018-03-26T13:54:57.543Z,33.50
2018-03-26T13:57:24.533Z,32.30
2018-03-26T13:59:51.535Z,35.87
2018-03-26T14:02:17.732Z,37.23
2018-03-26T14:04:44.795Z,32.70
2018-03-26T14:07:12.797Z,37.93
2018-03-26T14:09:51.213Z,35.87
2018-03-26T14:12:30.757Z,36.57
2018-03-26T14:24:43.988Z,37.43
2018-03-26T14:27:10.600Z,39.47
2018-03-26T14:29:36.869Z,40.23
2018-03-26T14:32:04.495Z,35.13
2018-03-26T14:34:30.785Z,37.53
2018-03-26T14:36:57.749Z,21.97
2018-03-26T14:39:24.955Z,25.17
2018-03-26T14:41:51.926Z,28.53
2018-03-26T14:44:19.927Z,34.80
2018-03-26T14:46:46.209Z,36.17
2018-03-26T14:49:13.196Z,35.77
2018-03-26T14:51:40.178Z,36.20
2018-03-26T14:54:06.410Z,36.87
2018-03-26T14:56:32.612Z,38.30
2018-03-26T14:59:00.523Z,36.60
2018-03-26T15:01:27.463Z,33.80
2018-03-26T15:03:59.612Z,35.90
2018-03-26T15:06:25.866Z,35.43
2018-03-26T15:08:52.580Z,32.60
2018-03-26T15:11:19.203Z,35.20
2018-03-26T15:13:45.432Z,32.57
2018-03-26T15:16:11.737Z,33.87
2018-03-26T15:18:38.914Z,35.40
2018-03-26T15:21:05.215Z,33.30
2018-03-26T15:23:31.812Z,37.27
2018-03-26T15:25:58.799Z,33.80
2018-03-26T15:28:26.754Z,36.80
2018-03-26T15:30:52.984Z,33.20
2018-03-26T15:33:19.612Z,34.30
2018-03-26T15:35:46.585Z,31.43
2018-03-26T15:38:12.882Z,33.00
2018-03-26T15:40:40.693Z,35.70
2018-03-26T15:43:07.754Z,33.40
2018-03-26T15:45:34.834Z,35.23
2018-03-26T15:48:01.055Z,31.30
2018-03-26T15:50:27.321Z,30.70
2018-03-26T15:52:53.937Z,30.30
2018-03-26T15:55:21.877Z,36.10
2018-03-26T15:57:48.878Z,41.83
2018-03-26T16:00:15.849Z,38.63
2018-03-26T16:02:48.130Z,36.10
2018-03-26T16:05:14.712Z,42.97
2018-03-26T16:07:40.922Z,37.83
2018-03-26T16:10:07.996Z,36.90
2018-03-26T16:12:34.209Z,33.43
2018-03-26T16:15:01.236Z,35.80
2018-03-26T16:17:28.258Z,42.70
2018-03-26T16:19:56.019Z,37.57
2018-03-26T16:22:22.235Z,38.60
2018-03-26T16:24:48.422Z,38.43
2018-03-26T16:27:15.441Z,34.50
2018-03-26T16:29:41.689Z,33.83
2018-03-26T16:32:07.917Z,33.10
2018-03-26T16:34:34.525Z,34.27
2018-03-26T16:37:01.956Z,32.20
2018-03-26T16:39:28.163Z,24.30
2018-03-26T16:42:07.415Z,16.07
2018-03-26T16:44:33.657Z,15.27
2018-03-26T16:46:59.911Z,12.23
2018-03-26T16:49:26.124Z,9.87
2018-03-26T16:51:52.428Z,9.40
2018-03-26T16:54:19.015Z,10.37
2018-03-26T16:56:45.203Z,9.47
2018-03-26T16:59:11.399Z,7.57
2018-03-26T17:01:37.660Z,8.70
2018-03-26T17:04:05.614Z,8.70
2018-03-26T17:06:32.192Z,7.93
2018-03-26T17:08:58.857Z,8.50
2018-03-26T17:11:25.998Z,7.90
2018-03-26T17:13:52.256Z,7.17
2018-03-26T17:16:19.269Z,8.20
2018-03-26T17:18:45.643Z,7.00
2018-03-26T17:21:13.190Z,7.27
2018-03-26T17:23:39.411Z,9.83
2018-03-26T17:26:12.376Z,6.87
2018-03-26T17:28:38.605Z,7.80
2018-03-26T17:31:05.290Z,7.40
2018-03-26T17:33:32.584Z,7.63
2018-03-26T17:35:59.491Z,8.80
2018-03-26T17:38:30.871Z,6.80
2018-03-26T17:41:00.819Z,7.83
2018-03-26T17:43:27.031Z,8.60
2018-03-26T17:45:55.153Z,7.50
2018-03-26T17:48:22.107Z,7.13
2018-03-26T17:50:49.064Z,8.43
2018-03-26T17:53:15.406Z,8.07
2018-03-26T17:55:41.634Z,7.60
2018-03-26T17:58:08.061Z,7.63
2018-03-26T18:00:34.975Z,7.83
2018-03-26T18:03:03.689Z,7.83
2018-03-26T18:05:30.686Z,7.50
2018-03-26T18:07:59.252Z,9.77
2018-03-26T18:10:26.668Z,7.50
2018-03-26T18:12:56.874Z,8.80
2018-03-26T18:15:23.479Z,7.50
2018-03-26T18:17:49.766Z,8.87
2018-03-26T18:20:16.748Z,7.80
2018-03-26T18:22:42.988Z,5.70
2018-03-26T18:25:10.665Z,6.03
2018-03-26T18:27:36.972Z,4.93
2018-03-26T18:30:04.082Z,6.00
2018-03-26T18:32:31.209Z,7.00
2018-03-26T18:35:00.592Z,6.97
2018-03-26T18:37:27.578Z,6.30
2018-03-26T18:39:55.455Z,6.60
2018-03-26T18:42:25.226Z,6.77
2018-03-26T18:44:51.829Z,7.13
2018-03-26T18:47:19.954Z,5.60
2018-03-26T18:49:46.381Z,6.93
2018-03-26T18:52:12.643Z,7.10
2018-03-26T18:54:40.399Z,7.00
2018-03-26T18:57:07.443Z,5.70
2018-03-26T18:59:34.837Z,5.10
2018-03-26T19:02:02.504Z,5.10
2018-03-26T19:04:33.074Z,5.50
2018-03-26T19:07:01.951Z,5.57
2018-03-26T19:09:34.602Z,5.20
2018-03-26T19:12:04.953Z,5.57
2018-03-26T19:14:33.207Z,6.30
2018-03-26T19:26:46.387Z,5.50
2018-03-26T19:29:13.481Z,6.10
2018-03-26T19:31:39.719Z,7.20
2018-03-26T19:34:09.209Z,5.60
2018-03-26T19:36:36.258Z,8.63
2018-03-26T19:39:02.514Z,7.20
2018-03-26T19:41:30.679Z,6.70
2018-03-26T19:43:57.235Z,6.70
2018-03-26T19:46:24.248Z,5.30
2018-03-26T19:48:51.173Z,6.77
2018-03-26T19:51:18.794Z,7.60
2018-03-26T19:53:45.751Z,7.13
2018-03-26T19:56:12.289Z,5.90
2018-03-26T19:58:40.016Z,6.77
2018-03-26T20:01:06.845Z,6.23
2018-03-26T20:03:33.207Z,11.10
2018-03-26T20:06:01.449Z,7.40
2018-03-26T20:08:30.332Z,6.10
2018-03-26T20:10:57.313Z,8.90
2018-03-26T20:13:24.823Z,7.63
2018-03-26T20:15:52.135Z,7.30
2018-03-26T20:18:19.082Z,6.77
2018-03-26T20:20:46.095Z,6.20
2018-03-26T20:36:12.714Z,5.20
2018-03-26T20:38:40.504Z,4.80
2018-03-26T20:41:07.129Z,6.40
2018-03-26T20:43:33.328Z,7.23
2018-03-26T20:45:59.632Z,5.40
2018-03-26T20:48:26.543Z,5.63
2018-03-26T20:50:52.723Z,5.57
2018-03-26T20:53:20.514Z,4.77
2018-03-26T20:55:47.768Z,5.90
2018-03-26T20:58:13.988Z,5.90
2018-03-26T21:00:43.005Z,5.63
2018-03-26T21:03:10.210Z,5.47
2018-03-26T21:05:37.951Z,5.93
2018-03-26T21:08:04.634Z,5.40
2018-03-26T21:10:32.828Z,5.37
2018-03-26T21:12:59.724Z,6.20
2018-03-26T21:15:27.682Z,6.40
2018-03-26T21:17:55.711Z,6.30
2018-03-26T21:20:22.263Z,5.47
2018-03-26T21:22:49.896Z,5.50
2018-03-26T21:25:16.169Z,6.00
2018-03-26T21:27:43.732Z,5.07
2018-03-26T21:30:09.933Z,4.60
2018-03-26T21:32:36.563Z,5.33
2018-03-26T21:35:03.600Z,5.77
2018-03-26T21:37:31.574Z,5.20
2018-03-26T21:39:58.531Z,5.83
2018-03-26T21:42:25.619Z,5.07
2018-03-26T21:44:54.195Z,4.97
2018-03-26T21:47:21.212Z,5.20
2018-03-26T21:49:48.991Z,5.60
2018-03-26T21:52:17.155Z,4.57
2018-03-26T21:54:44.540Z,4.30
2018-03-26T21:57:10.731Z,5.10
2018-03-26T21:59:37.438Z,5.63
2018-03-26T22:02:03.975Z,5.20
2018-03-26T22:04:31.141Z,6.37
2018-03-26T22:06:57.345Z,4.93
2018-03-26T22:09:24.011Z,5.23
2018-03-26T22:11:50.599Z,5.10
2018-03-26T22:14:18.361Z,4.50
2018-03-26T22:16:45.483Z,6.57
2018-03-26T22:19:12.775Z,4.63
2018-03-26T22:21:40.121Z,4.43
2018-03-26T22:24:07.945Z,7.17
2018-03-26T22:26:35.345Z,4.17
2018-03-26T22:29:01.544Z,5.37
2018-03-26T22:31:29.387Z,5.20
2018-03-26T22:33:57.101Z,4.97
2018-03-26T22:36:23.347Z,4.87
2018-03-26T22:51:55.337Z,6.93
2018-03-26T22:54:21.501Z,7.10
2018-03-26T22:56:50.191Z,5.70
2018-03-26T22:59:19.137Z,5.83
2018-03-26T23:01:46.138Z,6.30
2018-03-26T23:04:13.118Z,6.00
2018-03-26T23:06:41.403Z,4.50
2018-03-26T23:09:07.947Z,5.30
2018-03-26T23:11:35.457Z,5.73
2018-03-26T23:14:01.637Z,5.60
2018-03-26T23:16:28.319Z,6.20
2018-03-26T23:18:54.889Z,6.30
2018-03-26T23:21:22.765Z,5.73
2018-03-26T23:23:50.056Z,5.80
2018-03-26T23:26:17.061Z,5.30
2018-03-26T23:28:44.565Z,6.23
2018-03-26T23:31:12.127Z,6.10
2018-03-26T23:33:38.463Z,5.93
2018-03-26T23:36:05.471Z,5.40
2018-03-26T23:38:33.019Z,6.40
2018-03-26T23:41:01.256Z,6.07
2018-03-26T23:43:27.538Z,5.77
2018-03-26T23:45:54.676Z,6.37
2018-03-26T23:48:20.923Z,6.00
2018-03-26T23:50:47.132Z,6.40
2018-03-26T23:53:14.578Z,6.17
2018-03-26T23:55:42.500Z,6.40
2018-03-26T23:58:10.232Z,7.00
